Time;durP1;ratioP1;P1;durP2;ratioP2;P2;SDS_P1;SDS_P2;PMS_P1;PMS_P2;Temp;Humidity;BMP_temperature;BMP_pressure;BME280_temperature;BME280_humidity;BME280_pressure;Samples;Min_cycle;Max_cycle;Signal;HPM_P1;HPM_P2
2022/05/20 00:01:11;;;;;;;3.15;1.52;;;;;;;8.79;78.81;98015.81;5027188;28;20491;-65
2022/05/20 00:03:39;;;;;;;2.15;1.80;;;;;;;8.89;78.98;98009.09;5027221;28;20067;-66
2022/05/20 00:06:06;;;;;;;3.38;1.80;;;;;;;8.79;78.65;98003.94;5010215;28;20567;-67
2022/05/20 00:08:33;;;;;;;4.78;1.98;;;;;;;8.29;79.38;97942.38;5009265;28;20049;-65
2022/05/20 00:11:00;;;;;;;3.80;1.80;;;;;;;8.63;79.45;98005.72;4980582;28;20053;-65
2022/05/20 00:13:28;;;;;;;2.00;1.80;;;;;;;8.63;78.65;98006.50;5026915;28;20056;-66
2022/05/20 00:15:55;;;;;;;3.70;1.73;;;;;;;8.22;78.51;97966.94;5008570;28;20155;-66
2022/05/20 00:18:23;;;;;;;2.47;1.70;;;;;;;6.04;79.75;97621.56;5008896;28;20061;-67
2022/05/20 00:20:49;;;;;;;3.03;1.98;;;;;;;8.44;80.19;98013.59;5009301;28;20057;-67
2022/05/20 00:23:16;;;;;;;3.75;1.95;;;;;;;8.41;79.40;98009.53;5008981;28;20060;-67
2022/05/20 00:25:46;;;;;;;4.15;2.10;;;;;;;8.35;80.17;98021.91;5008882;28;20585;-67
2022/05/20 00:28:15;;;;;;;4.30;2.30;;;;;;;5.92;79.20;97602.19;5027256;28;20060;-66
2022/05/20 00:30:42;;;;;;;2.28;1.63;;;;;;;8.46;79.49;98006.59;5027125;28;20061;-67
2022/05/20 00:33:09;;;;;;;1.98;1.63;;;;;;;8.51;78.28;98003.66;5008926;28;20053;-67
2022/05/20 00:35:36;;;;;;;5.72;1.73;;;;;;;8.33;78.29;97957.94;5026318;28;20056;-67
2022/05/20 00:38:03;;;;;;;3.42;1.38;;;;;;;8.53;78.80;98006.06;5026212;28;20065;-66
2022/05/20 00:40:31;;;;;;;3.03;2.00;;;;;;;8.49;78.53;98010.63;5008640;28;20049;-66
2022/05/20 00:43:07;;;;;;;4.65;1.90;;;;;;;8.36;79.41;97978.56;5026195;28;20049;-67
2022/05/20 00:45:35;;;;;;;2.05;1.65;;;;;;;8.47;79.58;97997.16;5026971;28;20332;-66
2022/05/20 00:48:02;;;;;;;4.38;2.03;;;;;;;8.04;80.01;97954.34;5026301;28;20069;-66
2022/05/20 00:50:28;;;;;;;3.67;2.42;;;;;;;8.33;80.10;98012.38;5008479;28;20060;-68
2022/05/20 00:52:55;;;;;;;2.92;2.08;;;;;;;8.40;80.73;98013.47;5025655;28;20050;-67
2022/05/20 00:55:23;;;;;;;2.55;2.08;;;;;;;8.20;81.49;97994.03;5008264;28;20060;-66
2022/05/20 00:58:00;;;;;;;3.55;1.98;;;;;;;7.81;81.36;97928.16;5026133;28;20065;-67
2022/05/20 01:00:29;;;;;;;6.70;2.00;;;;;;;7.28;81.22;97838.53;5026095;28;20075;-66
2022/05/20 01:03:01;;;;;;;2.40;1.48;;;;;;;8.17;81.65;98019.53;5024880;28;20064;-67
2022/05/20 01:05:35;;;;;;;2.88;1.75;;;;;;;8.19;81.59;98018.06;5026244;28;20064;-66
2022/05/20 01:08:05;;;;;;;3.63;1.40;;;;;;;8.16;82.01;98009.63;5008010;28;20065;-66
2022/05/20 01:10:31;;;;;;;3.67;1.70;;;;;;;8.23;81.26;98009.97;5008470;28;20523;-66
2022/05/20 01:12:58;;;;;;;2.22;1.60;;;;;;;8.23;81.72;98012.72;5025784;28;20053;-66
2022/05/20 01:15:27;;;;;;;3.47;1.70;;;;;;;8.29;81.49;98011.41;5025763;28;20062;-66
2022/05/20 01:17:55;;;;;;;2.00;1.65;;;;;;;7.23;82.35;97879.22;5026019;28;20061;-67
2022/05/20 01:20:28;;;;;;;2.25;1.75;;;;;;;8.16;82.24;98004.09;5008252;28;20054;-66
2022/05/20 01:23:01;;;;;;;2.88;1.80;;;;;;;8.08;82.66;98011.28;5007767;28;20520;-66
2022/05/20 01:25:29;;;;;;;2.13;1.73;;;;;;;7.98;83.43;98010.84;5024414;28;20527;-67
2022/05/20 01:27:57;;;;;;;2.80;1.67;;;;;;;8.03;82.92;98014.22;5007950;28;20079;-67
2022/05/20 01:30:26;;;;;;;4.05;1.63;;;;;;;7.37;84.27;97935.75;4992975;28;20064;-66
2022/05/20 01:32:54;;;;;;;3.10;1.63;;;;;;;7.22;84.17;97938.22;5007603;28;20058;-67
2022/05/20 01:35:31;;;;;;;4.95;1.98;;;;;;;6.97;85.46;97895.78;5007424;28;20064;-66
2022/05/20 01:37:58;;;;;;;3.42;1.77;;;;;;;7.43;84.52;97978.53;5025077;28;20199;-67
2022/05/20 01:40:31;;;;;;;4.03;1.83;;;;;;;7.53;85.36;98011.28;5007786;28;20080;-67
2022/05/20 01:43:08;;;;;;;2.20;1.47;;;;;;;7.18;85.05;97951.03;5007419;28;20049;-66
2022/05/20 01:45:42;;;;;;;4.32;1.77;;;;;;;7.55;85.58;98003.50;5024813;28;20713;-66
2022/05/20 01:48:35;;;;;;;1.67;1.48;;;;;;;7.57;84.73;97995.69;5007563;28;20091;-65
2022/05/20 01:51:05;;;;;;;2.60;1.63;;;;;;;6.87;84.64;97882.38;5008352;28;20061;-67
2022/05/20 01:53:43;;;;;;;2.35;1.80;;;;;;;7.56;84.64;98001.53;5025343;28;20054;-67
2022/05/20 01:56:16;;;;;;;1.95;1.60;;;;;;;7.62;83.83;97995.53;5025036;28;20516;-66
2022/05/20 01:58:54;;;;;;;2.00;1.50;;;;;;;7.58;84.75;97994.59;5007122;28;20396;-68
2022/05/20 02:01:27;;;;;;;2.55;1.50;;;;;;;7.57;83.41;97981.91;5024857;28;20134;-66
2022/05/20 02:03:56;;;;;;;;;;;;;;;7.68;82.50;98002.50;5007636;28;20056;-65
2022/05/20 02:06:27;;;;;;;1.83;1.35;;;;;;;7.45;82.54;97979.03;5007214;28;19925;-67
2022/05/20 02:08:58;;;;;;;3.30;1.70;;;;;;;7.66;81.83;97998.44;5007642;28;20092;-67
2022/05/20 02:11:50;;;;;;;2.13;1.83;;;;;;;7.60;82.05;98002.53;5024809;28;20456;-65
2022/05/20 02:14:32;;;;;;;3.17;1.83;;;;;;;7.05;82.79;97939.03;5024597;28;20068;-67
2022/05/20 02:17:08;;;;;;;1.98;1.52;;;;;;;7.56;83.24;98009.81;5024492;28;20049;-67
2022/05/20 02:19:41;;;;;;;3.50;1.88;;;;;;;7.71;83.05;97996.31;5006672;28;20061;-67
2022/05/20 02:22:13;;;;;;;4.32;1.50;;;;;;;7.63;83.87;97997.13;5007020;28;20049;-65
2022/05/20 02:24:41;;;;;;;6.55;1.70;;;;;;;6.97;84.48;97900.50;5024622;28;20060;-67
2022/05/20 02:27:17;;;;;;;4.43;1.98;;;;;;;7.36;84.95;97977.44;5007181;28;20452;-66
2022/05/20 02:29:52;;;;;;;2.83;1.70;;;;;;;7.66;84.03;98004.78;5006658;28;20049;-67
2022/05/20 02:32:22;;;;;;;2.53;1.40;;;;;;;7.61;84.37;98002.19;5009056;28;20474;-66
2022/05/20 02:34:50;;;;;;;2.92;1.75;;;;;;;7.65;84.68;98002.31;5023811;28;20456;-66
2022/05/20 02:37:29;;;;;;;1.80;1.58;;;;;;;7.62;84.26;97998.28;5024354;28;20060;-67
2022/05/20 02:39:58;;;;;;;3.85;1.88;;;;;;;7.38;83.24;97951.16;5024217;28;20053;-67
2022/05/20 02:42:28;;;;;;;3.88;1.63;;;;;;;7.35;83.10;97968.34;5024379;28;20064;-67
2022/05/20 02:44:59;;;;;;;2.55;1.50;;;;;;;7.63;83.48;98013.69;5024081;28;20053;-67
2022/05/20 02:47:31;;;;;;;2.28;1.50;;;;;;;7.75;83.16;98021.28;5024988;28;20428;-67
2022/05/20 02:50:12;;;;;;;2.13;1.42;;;;;;;7.79;82.71;98007.66;5024025;28;20061;-66
2022/05/20 02:52:39;;;;;;;4.53;1.50;;;;;;;7.08;82.44;97902.56;5024018;28;20057;-66
2022/05/20 02:55:06;;;;;;;2.33;1.50;;;;;;;7.81;81.36;98013.66;5006207;28;20045;-65
2022/05/20 02:57:33;;;;;;;2.03;1.42;;;;;;;7.77;82.03;98015.44;5023612;28;20448;-67
2022/05/20 03:05:33;;;;;;;3.00;1.40;;;;;;;7.76;83.13;98019.34;5023863;28;20448;-64
2022/05/20 03:08:00;;;;;;;3.08;1.45;;;;;;;6.96;83.39;97905.19;5005625;28;20590;-67
2022/05/20 03:10:27;;;;;;;2.85;1.50;;;;;;;7.43;82.60;97973.03;5023887;28;20060;-67
2022/05/20 03:12:59;;;;;;;4.90;1.48;;;;;;;7.51;82.26;97991.50;5005845;28;20089;-66
2022/05/20 03:15:26;;;;;;;2.22;1.45;;;;;;;7.29;82.50;97986.19;5005888;28;20061;-67
2022/05/20 03:17:52;;;;;;;2.22;1.52;;;;;;;6.97;82.22;97925.31;5005731;28;20064;-67
2022/05/20 03:20:20;;;;;;;2.85;1.50;;;;;;;7.61;83.55;98023.44;5023705;28;20439;-66
2022/05/20 03:22:46;;;;;;;4.05;1.88;;;;;;;7.70;82.02;98016.75;5023541;28;20049;-67
2022/05/20 03:25:13;;;;;;;4.22;1.70;;;;;;;7.57;82.41;98001.22;5005515;28;20618;-67
2022/05/20 03:27:40;;;;;;;3.20;1.40;;;;;;;7.64;82.81;98012.56;5023266;28;20160;-66
2022/05/20 03:30:10;;;;;;;3.47;1.90;;;;;;;7.25;82.59;97974.22;4992978;28;20054;-67
2022/05/20 03:32:38;;;;;;;2.95;1.48;;;;;;;6.33;81.05;97799.66;4985980;28;20050;-67
2022/05/20 03:35:06;;;;;;;5.30;1.60;;;;;;;7.83;81.06;98022.41;5004025;28;20508;-66
2022/05/20 03:37:33;;;;;;;2.38;1.85;;;;;;;7.83;81.35;98016.88;4986349;28;20061;-67
2022/05/20 03:40:01;;;;;;;5.25;1.65;;;;;;;7.93;81.39;98013.78;5004043;28;20053;-66
2022/05/20 03:42:27;;;;;;;7.03;1.55;;;;;;;8.16;80.29;98024.25;5003862;28;20065;-66
2022/05/20 03:44:54;;;;;;;5.53;1.70;;;;;;;8.29;79.50;98022.44;5003681;28;20050;-68
2022/05/20 03:47:21;;;;;;;3.28;2.00;;;;;;;8.43;78.98;98023.84;5006002;28;20054;-68
2022/05/20 03:49:47;;;;;;;4.85;2.10;;;;;;;8.56;78.80;98019.22;4985471;28;20525;-66
2022/05/20 03:52:14;;;;;;;5.25;2.90;;;;;;;8.73;77.23;98028.22;4985787;28;20058;-68
2022/05/20 03:54:42;;;;;;;5.50;2.90;;;;;;;8.69;76.87;98004.38;5002357;28;20068;-68
2022/05/20 03:57:09;;;;;;;4.40;2.33;;;;;;;8.92;77.53;98023.06;5016736;28;20053;-68
2022/05/20 03:59:36;;;;;;;4.03;2.00;;;;;;;9.17;76.15;98037.81;5005393;28;20057;-68
2022/05/20 04:02:09;;;;;;;5.35;2.25;;;;;;;9.38;76.33;98022.03;5022967;28;20059;-67
2022/05/20 04:04:42;;;;;;;5.93;1.80;;;;;;;9.52;75.63;98022.56;5022657;28;20164;-67
2022/05/20 04:07:10;;;;;;;4.72;2.25;;;;;;;9.68;74.00;98031.03;5001892;28;20054;-67
2022/05/20 04:09:37;;;;;;;3.03;2.40;;;;;;;9.49;73.15;97976.22;5003449;28;20058;-67
2022/05/20 04:12:11;;;;;;;3.25;2.00;;;;;;;9.91;72.62;98024.75;5001857;28;20056;-67
2022/05/20 04:14:38;;;;;;;2.60;1.95;;;;;;;9.45;72.60;97908.94;5003639;28;20069;-67
2022/05/20 04:17:05;;;;;;;2.95;1.80;;;;;;;9.65;72.37;97938.47;5001973;28;20057;-67
2022/05/20 04:19:33;;;;;;;4.30;2.30;;;;;;;9.89;71.96;97965.38;5003232;28;20064;-67
2022/05/20 04:22:05;;;;;;;2.25;2.00;;;;;;;10.04;71.20;97968.28;5001956;28;20054;-67
2022/05/20 04:24:32;;;;;;;6.93;1.98;;;;;;;9.96;71.21;97940.69;5001575;28;20060;-65
2022/05/20 04:26:58;;;;;;;3.63;1.88;;;;;;;10.29;70.16;97971.94;5003527;28;20892;-66
2022/05/20 04:29:26;;;;;;;2.17;1.98;;;;;;;10.49;70.65;97991.19;4999463;28;20509;-67
2022/05/20 04:31:53;;;;;;;3.85;2.03;;;;;;;10.38;70.37;97931.88;4983853;28;20050;-67
2022/05/20 04:34:20;;;;;;;2.72;1.83;;;;;;;10.57;69.86;97951.47;4983523;28;20089;-67
2022/05/20 04:36:48;;;;;;;5.38;2.03;;;;;;;10.60;69.98;97959.09;4982029;28;20070;-67
2022/05/20 04:39:15;;;;;;;3.13;1.70;;;;;;;10.45;69.07;97923.78;4987183;28;20058;-67
2022/05/20 04:47:22;;;;;;;4.50;2.53;;;;;;;11.60;66.94;98013.59;5004018;28;20060;-67
2022/05/20 04:49:49;;;;;;;2.42;1.90;;;;;;;11.41;65.64;97960.72;5005684;28;20054;-68
2022/05/20 04:52:16;;;;;;;3.90;3.33;;;;;;;11.85;65.94;98020.69;5005407;28;20049;-68
2022/05/20 04:54:52;;;;;;;4.35;2.80;;;;;;;12.07;64.95;98017.31;5006429;28;20046;-67
2022/05/20 04:57:23;;;;;;;4.90;2.63;;;;;;;12.32;64.15;98017.94;5006342;28;20096;-68
2022/05/20 04:59:51;;;;;;;4.47;2.10;;;;;;;12.60;62.73;98025.03;5005312;28;20068;-68
2022/05/20 05:02:18;;;;;;;4.07;1.88;;;;;;;12.79;62.43;98039.00;5006506;28;20104;-66
2022/05/20 05:04:46;;;;;;;6.05;2.40;;;;;;;13.00;61.60;98022.88;5005300;28;20270;-67
2022/05/20 05:07:12;;;;;;;4.30;2.08;;;;;;;13.21;61.76;98016.97;5001316;28;20062;-66
2022/05/20 05:09:40;;;;;;;2.65;2.20;;;;;;;13.04;61.32;97962.56;4985625;28;20054;-65
2022/05/20 05:12:08;;;;;;;2.20;1.92;;;;;;;13.44;61.13;98010.34;4987159;28;20058;-66
2022/05/20 05:14:52;;;;;;;7.55;2.60;;;;;;;13.72;61.20;98009.31;4985565;28;20058;-67
2022/05/20 05:18:09;;;;;;;3.97;2.30;;;;;;;13.90;61.54;98007.69;4984998;28;20061;-66
2022/05/20 05:20:13;;;;;;;3.58;1.98;;;;;;;14.04;59.03;97988.44;4986714;28;20050;-63
2022/05/20 05:22:40;;;;;;;3.45;2.00;;;;;;;14.04;59.71;97982.88;4986288;28;20058;-67
2022/05/20 05:25:12;;;;;;;2.53;2.33;;;;;;;14.33;60.95;98004.53;4984886;28;20054;-68
2022/05/20 05:27:39;;;;;;;2.17;2.08;;;;;;;14.42;55.29;97994.75;4984712;28;20084;-67
2022/05/20 05:30:07;;;;;;;4.43;2.50;;;;;;;14.29;57.31;97962.66;4991482;28;20197;-70
2022/05/20 05:32:35;;;;;;;5.05;2.50;;;;;;;14.71;58.10;98004.41;5000183;28;20048;-62
2022/05/20 05:35:04;;;;;;;3.05;2.63;;;;;;;14.94;57.16;98000.41;5005223;28;20083;-56
2022/05/20 05:37:33;;;;;;;6.75;3.15;;;;;;;14.80;56.12;97960.31;5005459;28;20053;-56
2022/05/20 05:40:01;;;;;;;2.55;2.35;;;;;;;15.19;55.84;98014.69;5003182;28;20057;-65
2022/05/20 05:42:28;;;;;;;3.15;2.60;;;;;;;15.46;54.26;97999.56;5004270;28;20061;-61
2022/05/20 05:44:59;;;;;;;2.83;2.60;;;;;;;15.60;53.61;98007.34;5004261;28;20126;-55
2022/05/20 05:47:26;;;;;;;2.78;2.58;;;;;;;15.71;53.78;98006.25;5001681;28;20054;-54
2022/05/20 05:49:53;;;;;;;5.13;3.83;;;;;;;15.41;53.45;97941.28;5007523;28;20057;-60
2022/05/20 05:52:19;;;;;;;3.75;2.53;;;;;;;14.15;53.58;97702.44;5012134;28;20444;-62
2022/05/20 05:54:46;;;;;;;4.07;2.92;;;;;;;16.10;53.15;97998.34;5004197;28;20042;-60
2022/05/20 05:57:12;;;;;;;4.88;3.15;;;;;;;16.13;51.98;97950.06;5004352;28;20499;-58
2022/05/20 05:59:40;;;;;;;3.72;2.92;;;;;;;16.53;51.87;97992.81;5002132;28;20046;-62
2022/05/20 06:02:08;;;;;;;6.97;2.85;;;;;;;16.53;51.13;97964.81;5003639;28;20056;-56
2022/05/20 06:04:35;;;;;;;3.47;2.90;;;;;;;16.60;50.89;97992.88;5004415;28;20087;-65
2022/05/20 06:07:03;;;;;;;5.18;2.72;;;;;;;16.82;50.86;97977.06;5009051;28;20153;-61
2022/05/20 06:09:32;;;;;;;5.25;3.53;;;;;;;17.16;51.31;97986.09;5015748;28;20060;-63
2022/05/20 06:12:01;;;;;;;2.83;2.63;;;;;;;16.64;50.39;97878.22;5017375;28;20041;-53
2022/05/20 06:14:29;;;;;;;3.25;2.95;;;;;;;17.36;50.79;97979.00;5014293;28;20108;-62
2022/05/20 06:16:55;;;;;;;3.80;2.90;;;;;;;17.48;51.14;97987.13;5013747;28;20076;-61
2022/05/20 06:19:22;;;;;;;3.88;2.83;;;;;;;17.61;49.41;97971.56;5012697;28;20060;-54
2022/05/20 06:21:49;;;;;;;3.85;2.88;;;;;;;17.65;49.44;98031.22;5012542;28;20077;-55
2022/05/20 06:24:21;;;;;;;3.85;2.95;;;;;;;17.68;50.03;97985.59;5018246;28;20127;-63
2022/05/20 06:26:48;;;;;;;5.28;3.40;;;;;;;17.99;50.12;97984.91;5008866;28;20065;-67
2022/05/20 06:29:15;;;;;;;5.30;2.97;;;;;;;17.91;49.44;97949.63;5005216;28;20046;-63
2022/05/20 06:31:42;;;;;;;3.60;3.33;;;;;;;17.78;48.89;97895.94;5015817;28;20064;-64
2022/05/20 06:34:08;;;;;;;3.55;3.25;;;;;;;18.63;49.30;97991.47;5011189;28;20106;-57
2022/05/20 06:41:55;;;;;;;3.85;3.47;;;;;;;19.12;48.86;97981.03;5006909;28;20053;-54
2022/05/20 06:44:24;;;;;;;8.38;3.63;;;;;;;19.09;48.56;97978.22;5011015;28;20061;-63
2022/05/20 06:46:51;;;;;;;6.55;4.03;;;;;;;19.12;49.03;97983.03;5004911;28;20061;-63
2022/05/20 06:49:17;;;;;;;3.92;3.63;;;;;;;18.17;49.54;97864.34;5007029;28;20124;-63
2022/05/20 06:51:44;;;;;;;3.58;3.30;;;;;;;19.16;49.92;97975.38;5014843;28;20064;-60
2022/05/20 06:54:11;;;;;;;3.70;3.40;;;;;;;19.41;48.79;97976.19;5012340;28;20069;-60
2022/05/20 06:56:39;;;;;;;4.35;3.17;;;;;;;19.13;48.18;97903.97;5004068;28;20053;-54
2022/05/20 06:59:07;;;;;;;4.53;3.10;;;;;;;19.93;47.97;97963.13;5010437;28;20061;-64
2022/05/20 07:01:34;;;;;;;3.30;3.10;;;;;;;19.99;46.93;97967.91;5011755;28;20064;-63
2022/05/20 07:04:01;;;;;;;4.65;2.90;;;;;;;19.93;47.00;97912.50;5014703;28;20103;-64
2022/05/20 07:06:30;;;;;;;3.38;3.15;;;;;;;20.56;46.23;97963.56;5011438;28;20053;-61
2022/05/20 07:08:57;;;;;;;3.53;3.22;;;;;;;20.32;47.48;97967.34;5022599;28;20041;-54
2022/05/20 07:11:25;;;;;;;5.70;3.33;;;;;;;20.67;47.15;97969.09;5018245;28;20037;-56
2022/05/20 07:13:58;;;;;;;3.75;3.53;;;;;;;20.86;46.83;97955.28;5023039;28;20049;-62
2022/05/20 07:16:27;;;;;;;11.77;3.60;;;;;;;21.13;46.37;97954.66;5021867;28;20060;-55
2022/05/20 07:18:54;;;;;;;3.42;3.20;;;;;;;21.33;45.57;97966.91;5026126;28;20049;-58
2022/05/20 07:21:21;;;;;;;4.10;3.33;;;;;;;21.49;44.63;97964.31;5031299;28;20049;-63
2022/05/20 07:23:48;;;;;;;6.80;4.03;;;;;;;21.82;43.76;97960.72;5024686;28;20049;-55
2022/05/20 07:26:16;;;;;;;3.72;3.42;;;;;;;21.96;43.29;97972.63;5023194;28;20125;-63
2022/05/20 07:28:44;;;;;;;3.75;3.50;;;;;;;21.81;42.56;97937.38;5016985;28;20060;-56
2022/05/20 07:31:11;;;;;;;3.80;3.55;;;;;;;22.52;41.37;97967.44;5031906;28;20057;-56
2022/05/20 07:33:37;;;;;;;4.13;3.80;;;;;;;22.33;39.81;97966.91;5022130;28;20049;-55
2022/05/20 07:36:06;;;;;;;4.25;4.00;;;;;;;22.35;40.48;97967.25;5005658;28;20049;-54
2022/05/20 07:38:34;;;;;;;3.72;3.42;;;;;;;22.41;39.51;97956.28;5016470;28;20060;-57
2022/05/20 07:41:01;;;;;;;3.97;3.65;;;;;;;22.54;41.33;97962.19;5011260;28;20050;-54
2022/05/20 07:43:27;;;;;;;4.07;3.63;;;;;;;22.26;40.81;97955.69;5023463;28;20049;-55
2022/05/20 07:45:54;;;;;;;3.90;3.53;;;;;;;22.42;40.12;97952.22;5014775;28;20057;-61
2022/05/20 07:48:21;;;;;;;3.80;3.50;;;;;;;22.64;39.61;97947.06;5013564;28;20053;-60
2022/05/20 07:50:55;;;;;;;6.30;3.80;;;;;;;22.95;38.21;97959.88;5010974;28;20587;-61
2022/05/20 07:53:33;;;;;;;5.32;3.30;;;;;;;22.95;37.32;97959.88;5022344;28;20049;-52
2022/05/20 07:56:09;;;;;;;6.00;3.95;;;;;;;23.07;37.38;97940.28;5022204;28;20547;-60
2022/05/20 07:58:50;;;;;;;4.80;3.15;;;;;;;23.21;35.27;97944.88;5020421;28;20049;-59
2022/05/20 08:01:19;;;;;;;3.65;3.35;;;;;;;23.38;35.29;97949.41;5007949;28;20140;-62
2022/05/20 08:06:34;;;;;;;4.43;3.95;;;;;;;23.58;33.62;97936.91;5022642;28;20069;-57
2022/05/20 08:09:01;;;;;;;4.15;3.88;;;;;;;23.75;33.31;97985.88;5022051;28;20066;-60
2022/05/20 08:11:28;;;;;;;4.13;3.55;;;;;;;23.75;33.19;97930.09;5020181;28;20081;-62
2022/05/20 08:13:55;;;;;;;3.58;3.38;;;;;;;23.75;31.97;97934.94;5025609;28;20049;-53
2022/05/20 08:16:22;;;;;;;6.38;5.47;;;;;;;23.57;33.66;97940.16;5025476;28;20396;-54
2022/05/20 08:18:49;;;;;;;4.43;3.92;;;;;;;23.37;33.87;97874.31;5026186;28;20134;-60
2022/05/20 08:21:16;;;;;;;3.78;3.53;;;;;;;23.73;32.78;97909.13;5016596;28;20054;-60
2022/05/20 08:23:44;;;;;;;4.28;3.92;;;;;;;24.07;32.50;97929.44;5025589;28;20053;-61
2022/05/20 08:26:11;;;;;;;4.07;3.88;;;;;;;24.25;30.82;97935.50;5026105;28;20073;-61
2022/05/20 08:28:38;;;;;;;4.15;3.85;;;;;;;24.22;32.58;97918.56;5025571;28;20052;-60
2022/05/20 08:31:04;;;;;;;4.40;4.10;;;;;;;24.44;31.53;97920.47;5025145;28;20052;-59
2022/05/20 08:33:31;;;;;;;4.10;3.80;;;;;;;24.51;32.19;97919.50;5025790;28;20089;-54
2022/05/20 08:35:58;;;;;;;4.50;4.07;;;;;;;24.57;30.98;97901.56;5025262;28;20049;-61
2022/05/20 08:38:25;;;;;;;4.38;3.90;;;;;;;24.50;31.03;97915.88;5025083;28;20064;-56
2022/05/20 08:40:53;;;;;;;4.13;3.78;;;;;;;24.54;29.84;97907.28;5025267;28;20060;-64
2022/05/20 08:43:25;;;;;;;4.25;3.95;;;;;;;24.54;31.30;97919.44;5024794;28;20228;-54
2022/05/20 08:45:52;;;;;;;4.38;3.97;;;;;;;24.52;29.95;97904.91;5006645;28;20056;-60
2022/05/20 08:48:19;;;;;;;5.20;4.80;;;;;;;24.51;29.83;97903.31;4996511;28;20041;-61
2022/05/20 08:50:47;;;;;;;23.70;18.77;;;;;;;24.61;30.45;97896.56;5025151;28;20056;-61
2022/05/20 08:53:28;;;;;;;4.75;4.40;;;;;;;24.89;29.74;97901.59;5024776;28;20053;-63
2022/05/20 08:56:19;;;;;;;4.38;4.07;;;;;;;24.76;29.86;97857.38;5024828;28;20231;-64
2022/05/20 08:58:51;;;;;;;4.68;4.15;;;;;;;25.05;29.70;97895.88;5022677;28;20123;-62
2022/05/20 09:01:51;;;;;;;5.57;4.77;;;;;;;25.07;29.00;97896.22;5024058;28;20594;-62
2022/05/20 09:04:22;;;;;;;4.95;4.50;;;;;;;24.63;29.67;97854.44;5001315;28;20284;-62
2022/05/20 09:06:59;;;;;;;5.05;4.43;;;;;;;25.05;29.78;97893.03;5025787;28;20538;-64
2022/05/20 09:09:41;;;;;;;4.82;4.53;;;;;;;25.22;29.40;97886.09;5023124;28;20049;-62
2022/05/20 09:12:08;;;;;;;4.40;4.00;;;;;;;25.11;29.10;97885.59;5022536;28;20050;-63
2022/05/20 09:17:23;;;;;;;4.40;3.97;;;;;;;25.01;30.34;97875.31;5020928;28;20049;-63
2022/05/20 09:19:58;;;;;;;4.35;4.15;;;;;;;24.99;29.67;97804.09;5018374;28;20053;-59
2022/05/20 09:22:39;;;;;;;5.10;4.80;;;;;;;25.18;28.87;97862.69;5022046;28;20111;-59
2022/05/20 09:25:21;;;;;;;3.72;3.53;;;;;;;24.84;28.52;97864.47;5022107;28;20546;-62
2022/05/20 09:27:47;;;;;;;4.45;4.05;;;;;;;24.34;28.87;97845.06;5023172;28;20060;-57
2022/05/20 09:30:20;;;;;;;4.38;4.18;;;;;;;24.83;29.01;97860.81;5023741;28;20054;-56
2022/05/20 09:33:16;;;;;;;4.38;4.18;;;;;;;24.86;28.90;97859.16;5023066;28;20452;-57
2022/05/20 09:35:49;;;;;;;6.03;4.85;;;;;;;25.17;30.03;97863.97;5014733;28;20054;-62
2022/05/20 09:38:45;;;;;;;5.22;4.43;;;;;;;24.83;28.51;97787.13;5024484;28;20053;-59
2022/05/20 09:41:20;;;;;;;6.15;5.60;;;;;;;24.90;29.87;97795.44;5022743;28;20073;-59
2022/05/20 09:44:00;;;;;;;5.43;5.03;;;;;;;25.69;28.80;97845.91;5025188;28;20049;-58
2022/05/20 09:46:29;;;;;;;4.55;4.25;;;;;;;24.99;28.43;97843.78;5022298;28;20049;-59
2022/05/20 09:49:03;;;;;;;4.60;4.30;;;;;;;24.41;29.88;97842.03;5012934;28;20103;-57
2022/05/20 09:51:40;;;;;;;3.92;3.63;;;;;;;24.84;29.10;97848.25;5023710;28;20047;-57
2022/05/20 09:54:23;;;;;;;4.45;4.15;;;;;;;24.94;29.90;97841.47;5015515;28;20155;-58
2022/05/20 09:57:05;;;;;;;4.45;4.18;;;;;;;24.80;30.19;97841.88;5023750;28;20053;-58
2022/05/20 09:59:58;;;;;;;6.90;6.13;;;;;;;24.65;29.50;97840.63;5021190;28;20056;-64
2022/05/20 10:02:25;;;;;;;5.68;4.55;;;;;;;25.00;29.43;97828.38;5011283;28;20073;-62
2022/05/20 10:04:59;;;;;;;4.57;4.18;;;;;;;25.38;29.01;97824.91;5023405;28;20072;-60
2022/05/20 10:07:37;;;;;;;4.40;4.00;;;;;;;25.49;29.45;97791.34;5010140;28;20064;-58
2022/05/20 10:10:55;;;;;;;4.47;4.15;;;;;;;25.92;28.82;97786.75;5006589;28;20124;-58
2022/05/20 10:13:30;;;;;;;6.07;4.03;;;;;;;26.41;28.44;97824.91;4990661;28;20593;-63
2022/05/20 10:16:11;;;;;;;4.63;4.43;;;;;;;26.69;27.65;97828.88;5017529;28;20045;-57
2022/05/20 10:18:54;;;;;;;5.10;4.70;;;;;;;26.69;27.67;97794.78;5017323;28;20053;-61
2022/05/20 10:21:49;;;;;;;5.30;5.10;;;;;;;27.09;27.18;97827.06;5012113;28;20053;-56
2022/05/20 10:24:27;;;;;;;;;;;;;;;27.41;26.89;97818.16;5013034;28;20061;-59
2022/05/20 10:27:10;;;;;;;4.65;4.35;;;;;;;27.19;26.98;97814.50;5023816;28;20746;-61
2022/05/20 10:32:59;;;;;;;6.80;4.82;;;;;;;27.53;26.37;97805.94;5018434;28;20056;-57
2022/05/20 10:35:34;;;;;;;6.35;5.88;;;;;;;27.24;27.10;97796.84;5023640;28;20056;-56
2022/05/20 10:38:22;;;;;;;6.63;5.90;;;;;;;27.12;27.05;97799.75;5023672;28;20472;-56
2022/05/20 10:40:59;;;;;;;5.00;4.70;;;;;;;27.35;26.64;97802.16;5017768;28;20049;-62
2022/05/20 10:49:31;;;;;;;5.50;5.00;;;;;;;26.60;28.30;97797.50;5025949;28;20103;-62
2022/05/20 10:52:28;;;;;;;5.25;4.82;;;;;;;26.85;26.88;97794.63;5020414;28;20049;-64
2022/05/20 10:55:23;;;;;;;5.15;4.75;;;;;;;25.93;27.85;97754.25;5008879;28;20053;-64
2022/05/20 10:58:12;;;;;;;6.05;5.65;;;;;;;26.42;27.44;97785.94;5016181;28;20057;-62
2022/05/20 11:00:55;;;;;;;12.75;8.43;;;;;;;26.83;27.32;97768.69;5023545;28;20053;-60
2022/05/20 11:03:37;;;;;;;4.57;4.38;;;;;;;26.62;26.89;97789.28;5022752;28;20579;-57
2022/05/20 11:06:25;;;;;;;4.60;4.20;;;;;;;26.30;27.30;97778.22;5022594;28;20057;-62
2022/05/20 11:09:07;;;;;;;4.63;4.32;;;;;;;26.81;27.95;97768.34;5022978;28;20069;-66
2022/05/20 11:11:40;;;;;;;4.88;4.47;;;;;;;27.09;27.44;97763.69;5015892;28;20045;-66
2022/05/20 11:14:28;;;;;;;4.90;4.60;;;;;;;26.67;27.05;97771.69;5022579;28;20053;-57
2022/05/20 11:17:06;;;;;;;4.50;4.30;;;;;;;26.67;28.09;97768.84;5022031;28;20361;-61
2022/05/20 11:19:57;;;;;;;5.35;5.05;;;;;;;27.07;27.50;97752.75;5018261;28;20050;-61
2022/05/20 11:22:40;;;;;;;5.00;4.22;;;;;;;27.49;27.77;97754.03;5022328;28;20502;-57
2022/05/20 11:25:23;;;;;;;5.70;5.30;;;;;;;27.33;25.84;97765.63;5022338;28;20045;-57
2022/05/20 11:27:52;;;;;;;4.85;4.45;;;;;;;27.47;27.19;97759.41;5021806;28;20135;-67
2022/05/20 11:30:53;;;;;;;4.78;4.45;;;;;;;27.76;26.30;97754.16;5013090;28;20729;-56
2022/05/20 11:33:47;;;;;;;4.93;4.63;;;;;;;28.01;26.59;97742.59;5022305;28;20582;-72
2022/05/20 11:36:32;;;;;;;5.13;4.82;;;;;;;28.09;26.36;97732.50;5019618;28;20042;-61
2022/05/20 11:39:21;;;;;;;6.03;5.50;;;;;;;28.10;26.23;97731.25;5013587;28;20099;-70
2022/05/20 11:42:08;;;;;;;5.45;4.95;;;;;;;27.90;26.06;97730.84;5016092;28;20061;-56
2022/05/20 11:44:51;;;;;;;5.10;4.80;;;;;;;26.13;27.70;97748.38;5002833;28;20563;-63
2022/05/20 11:48:00;;;;;;;4.88;4.68;;;;;;;27.04;26.64;97730.94;5021861;28;20061;-61
2022/05/20 11:50:39;;;;;;;4.50;4.20;;;;;;;27.03;26.93;97726.47;4996747;28;20075;-57
2022/05/20 11:53:18;;;;;;;5.05;4.50;;;;;;;27.54;26.72;97730.66;5022781;28;20542;-56
2022/05/20 11:56:14;;;;;;;5.00;4.60;;;;;;;27.80;26.13;97729.22;5026142;28;20049;-62
2022/05/20 11:58:46;;;;;;;5.20;4.80;;;;;;;28.27;25.94;97725.25;4995194;28;20061;-66
2022/05/20 12:01:14;;;;;;;4.95;4.65;;;;;;;28.43;25.76;97727.81;5014956;28;20061;-64
2022/05/20 12:06:30;;;;;;;4.80;4.60;;;;;;;27.90;25.53;97661.72;5025570;28;20042;-55
2022/05/20 12:08:59;;;;;;;5.03;4.72;;;;;;;27.37;25.73;97692.28;5020498;28;20568;-60
2022/05/20 12:11:37;;;;;;;4.90;4.60;;;;;;;26.99;26.30;97714.47;5025226;28;20059;-57
2022/05/20 12:14:10;;;;;;;5.22;4.93;;;;;;;27.40;25.93;97702.75;5020707;28;20060;-54
2022/05/20 12:16:54;;;;;;;;;;;;;;;26.79;27.07;97696.94;5030795;28;20049;-54
2022/05/20 12:25:36;;;;;;;5.80;5.38;;;;;;;27.11;27.67;97699.34;5019597;28;20099;-61
2022/05/20 12:28:20;;;;;;;5.03;4.60;;;;;;;27.55;26.97;97691.59;5022141;28;20061;-62
2022/05/20 12:31:11;;;;;;;4.50;4.30;;;;;;;27.07;26.57;97687.34;5024487;28;20057;-55
2022/05/20 12:34:10;;;;;;;4.90;4.70;;;;;;;28.23;25.49;97684.72;5016085;28;20053;-54
2022/05/20 12:36:41;;;;;;;5.43;5.05;;;;;;;29.89;24.16;97670.13;5016781;28;20041;-55
2022/05/20 12:39:09;;;;;;;5.90;5.43;;;;;;;29.82;24.52;97668.41;5022245;28;20431;-56
2022/05/20 12:41:53;;;;;;;5.15;4.75;;;;;;;29.21;23.91;97666.84;5025262;28;20054;-62